createdAt,value
2023-05-10T00:04:12.457Z,9.89
2023-05-10T00:09:14.837Z,9.93
2023-05-10T00:14:16.843Z,10.05
2023-05-10T00:19:18.834Z,9.74
2023-05-10T00:24:20.687Z,9.75
2023-05-10T00:29:22.558Z,9.50
2023-05-10T00:34:24.453Z,9.50
2023-05-10T00:39:27.753Z,9.48
2023-05-10T00:44:29.695Z,9.08
2023-05-10T00:49:32.309Z,8.99
2023-05-10T00:54:34.365Z,9.12
2023-05-10T00:59:36.355Z,8.97
2023-05-10T01:04:39.099Z,8.85
2023-05-10T01:09:41.245Z,8.82
2023-05-10T01:14:43.486Z,8.98
2023-05-10T01:19:45.537Z,9.14
2023-05-10T01:25:15.434Z,9.01
2023-05-10T01:30:36.487Z,8.73
2023-05-10T01:35:48.871Z,8.68
2023-05-10T01:41:32.309Z,8.78
2023-05-10T01:46:38.849Z,8.65
2023-05-10T01:51:48.312Z,8.43
2023-05-10T01:57:04.225Z,8.28
2023-05-10T02:02:07.082Z,8.21
2023-05-10T02:07:10.635Z,7.89
2023-05-10T02:12:15.066Z,7.57
2023-05-10T02:17:17.853Z,7.54
2023-05-10T02:22:21.347Z,7.31
2023-05-10T02:27:25.592Z,7.12
2023-05-10T02:32:28.808Z,6.96
2023-05-10T02:37:33.464Z,6.81
2023-05-10T02:42:38.070Z,6.77
2023-05-10T02:47:40.408Z,6.74
2023-05-10T02:52:55.594Z,6.59
2023-05-10T02:58:01.195Z,6.56
2023-05-10T03:03:03.181Z,6.66
2023-05-10T03:08:05.961Z,6.62
2023-05-10T03:13:29.471Z,6.58
2023-05-10T03:18:51.960Z,6.83
2023-05-10T03:24:03.593Z,7.35
2023-05-10T03:29:07.506Z,8.37
2023-05-10T03:34:09.417Z,8.69
2023-05-10T03:39:11.578Z,8.93
2023-05-10T03:44:13.801Z,8.91
2023-05-10T03:49:15.728Z,8.94
2023-05-10T03:54:17.762Z,9.08
2023-05-10T03:59:21.893Z,9.17
2023-05-10T04:04:24.348Z,9.26
2023-05-10T04:09:27.011Z,9.53
2023-05-10T04:14:29.173Z,9.63
2023-05-10T04:19:31.720Z,9.79
2023-05-10T04:24:33.563Z,9.95
2023-05-10T04:29:35.429Z,10.01
2023-05-10T04:34:38.343Z,10.21
2023-05-10T04:39:42.286Z,10.41
2023-05-10T04:44:44.721Z,10.62
2023-05-10T04:49:46.739Z,10.78
2023-05-10T04:54:48.730Z,11.01
2023-05-10T04:59:50.728Z,11.27
2023-05-10T05:04:52.617Z,11.57
2023-05-10T05:09:54.508Z,11.74
2023-05-10T05:14:56.356Z,12.09
2023-05-10T05:19:58.251Z,12.61
2023-05-10T05:25:00.288Z,12.84
2023-05-10T05:30:02.162Z,12.78
2023-05-10T05:35:04.185Z,12.89
2023-05-10T05:40:08.325Z,12.97
2023-05-10T05:45:14.061Z,13.34
2023-05-10T05:50:16.328Z,13.31
2023-05-10T05:55:18.782Z,13.57
2023-05-10T06:00:20.808Z,14.01
2023-05-10T06:05:22.771Z,13.89
2023-05-10T06:10:25.884Z,13.79
2023-05-10T06:15:28.456Z,13.61
2023-05-10T06:20:32.478Z,13.75
2023-05-10T06:25:34.451Z,13.53
2023-05-10T06:30:37.696Z,13.52
2023-05-10T06:35:40.005Z,13.24
2023-05-10T06:40:44.952Z,13.19
2023-05-10T06:45:47.176Z,13.50
2023-05-10T06:50:49.065Z,13.63
2023-05-10T06:55:51.218Z,14.09
2023-05-10T07:00:53.187Z,14.48
2023-05-10T07:05:56.259Z,14.56
2023-05-10T07:11:06.056Z,15.27
2023-05-10T07:16:08.726Z,15.15
2023-05-10T07:21:10.840Z,15.54
2023-05-10T07:26:12.813Z,16.17
2023-05-10T07:31:14.725Z,16.46
2023-05-10T07:36:16.760Z,16.99
2023-05-10T07:41:18.678Z,16.71
2023-05-10T07:46:20.854Z,16.70
2023-05-10T07:51:22.892Z,16.30
2023-05-10T07:56:30.684Z,16.02
2023-05-10T08:01:33.762Z,15.51
2023-05-10T08:06:35.688Z,15.72
2023-05-10T08:11:37.681Z,15.21
2023-05-10T08:16:39.642Z,15.06
2023-05-10T08:21:43.182Z,14.84
2023-05-10T08:26:45.030Z,14.63
2023-05-10T08:31:46.974Z,14.48
2023-05-10T08:36:48.848Z,14.35
2023-05-10T08:41:52.634Z,13.84
2023-05-10T08:46:56.052Z,13.78
2023-05-10T08:52:00.779Z,13.97
2023-05-10T08:57:03.009Z,14.04
2023-05-10T09:02:05.971Z,13.98
2023-05-10T09:07:08.382Z,13.85
2023-05-10T09:12:12.596Z,13.96
2023-05-10T09:17:14.699Z,13.55
2023-05-10T09:22:17.592Z,13.52
2023-05-10T09:27:27.972Z,13.66
2023-05-10T09:32:42.885Z,13.42
2023-05-10T09:37:49.962Z,13.13
2023-05-10T09:42:55.964Z,12.75
2023-05-10T09:47:59.044Z,12.43
2023-05-10T09:53:03.837Z,12.38
2023-05-10T09:58:10.521Z,12.54
2023-05-10T10:03:17.668Z,12.47
2023-05-10T10:08:19.576Z,12.83
2023-05-10T10:13:21.832Z,12.63
2023-05-10T10:18:28.232Z,12.74
2023-05-10T10:23:30.272Z,13.00
2023-05-10T10:29:05.634Z,12.77
2023-05-10T10:34:10.694Z,12.86
2023-05-10T10:39:13.377Z,13.25
2023-05-10T10:44:27.569Z,13.18
2023-05-10T10:49:33.578Z,13.31
2023-05-10T10:54:36.434Z,13.47
2023-05-10T10:59:44.119Z,13.45
2023-05-10T11:04:47.676Z,13.33
2023-05-10T11:09:49.893Z,13.29
2023-05-10T11:14:52.473Z,13.24
2023-05-10T11:20:08.922Z,12.78
2023-05-10T11:25:10.871Z,12.63
2023-05-10T11:30:13.404Z,12.37
2023-05-10T11:35:15.829Z,12.28
2023-05-10T11:40:18.135Z,12.42
2023-05-10T11:45:20.423Z,12.45
2023-05-10T11:50:22.584Z,12.75
2023-05-10T11:55:25.358Z,12.88
2023-05-10T12:00:27.342Z,13.08
2023-05-10T12:05:32.698Z,13.26
2023-05-10T12:10:35.912Z,13.94
2023-05-10T12:15:37.802Z,14.43
2023-05-10T12:20:40.446Z,14.71
2023-05-10T12:25:42.369Z,14.61
2023-05-10T12:30:45.123Z,14.80
2023-05-10T12:35:55.197Z,14.89
2023-05-10T12:41:18.730Z,14.43
2023-05-10T12:46:20.830Z,13.83
2023-05-10T12:51:23.625Z,13.71
2023-05-10T12:56:25.590Z,13.96
2023-05-10T13:01:27.529Z,14.17
2023-05-10T13:06:29.590Z,14.59
2023-05-10T13:11:31.570Z,14.97
2023-05-10T13:16:33.876Z,15.00
2023-05-10T13:21:35.835Z,15.76
2023-05-10T13:26:38.136Z,16.52
2023-05-10T13:31:40.159Z,17.39
2023-05-10T13:36:42.188Z,16.03
2023-05-10T13:41:44.089Z,15.53
2023-05-10T13:46:46.261Z,15.71
2023-05-10T13:51:48.225Z,15.84
2023-05-10T13:56:50.214Z,16.01
2023-05-10T14:01:52.336Z,16.28
2023-05-10T14:06:54.184Z,16.40
2023-05-10T14:11:56.961Z,16.37
2023-05-10T14:16:59.143Z,16.37
2023-05-10T14:22:01.360Z,16.42
2023-05-10T14:27:03.416Z,16.30
2023-05-10T14:32:05.428Z,16.44
2023-05-10T14:37:07.465Z,16.10
2023-05-10T14:42:09.941Z,16.39
2023-05-10T14:47:12.452Z,16.37
2023-05-10T14:52:15.376Z,15.84
2023-05-10T14:57:17.314Z,16.18
2023-05-10T15:02:19.216Z,16.11
2023-05-10T15:07:21.595Z,15.97
2023-05-10T15:12:23.489Z,15.99
2023-05-10T15:17:25.548Z,15.53
2023-05-10T15:22:29.315Z,15.17
2023-05-10T15:27:31.201Z,14.76
2023-05-10T15:32:33.115Z,14.50
2023-05-10T15:37:35.044Z,14.40
2023-05-10T15:42:38.155Z,14.36
2023-05-10T15:47:42.781Z,14.23
2023-05-10T15:52:44.727Z,14.18
2023-05-10T15:57:46.817Z,14.18
2023-05-10T16:02:48.730Z,14.25
2023-05-10T16:07:50.685Z,14.13
2023-05-10T16:12:54.433Z,14.03
2023-05-10T16:17:56.690Z,13.93
2023-05-10T16:23:03.797Z,13.90
2023-05-10T16:28:05.791Z,13.87
2023-05-10T16:33:07.658Z,13.67
2023-05-10T16:38:09.534Z,13.45
2023-05-10T16:43:11.374Z,13.25
2023-05-10T16:48:13.195Z,13.26
2023-05-10T16:53:15.678Z,13.08
2023-05-10T16:58:17.516Z,12.90
2023-05-10T17:03:19.540Z,12.86
2023-05-10T17:08:22.299Z,12.91
2023-05-10T17:13:24.118Z,13.01
2023-05-10T17:18:26.848Z,13.08
2023-05-10T17:23:29.174Z,13.06
2023-05-10T17:28:31.180Z,13.03
2023-05-10T17:33:33.084Z,13.05
2023-05-10T17:38:36.162Z,12.88
2023-05-10T17:43:38.000Z,12.79
2023-05-10T17:48:39.926Z,12.71
2023-05-10T17:53:41.850Z,12.63
2023-05-10T17:58:43.964Z,12.45
2023-05-10T18:03:46.395Z,12.43
2023-05-10T18:08:48.358Z,12.40
2023-05-10T18:13:50.228Z,12.37
2023-05-10T18:18:52.160Z,12.34
2023-05-10T18:23:54.614Z,12.28
2023-05-10T18:28:57.323Z,12.24
2023-05-10T18:33:59.899Z,12.19
2023-05-10T18:39:01.749Z,12.15
2023-05-10T18:44:03.824Z,12.06
2023-05-10T18:49:06.643Z,12.00
2023-05-10T18:54:08.557Z,11.91
2023-05-10T18:59:11.152Z,11.85
2023-05-10T19:04:13.027Z,11.83
2023-05-10T19:09:14.909Z,11.83
2023-05-10T19:14:16.767Z,11.83
2023-05-10T19:19:18.753Z,11.86
2023-05-10T19:24:24.406Z,11.85
2023-05-10T19:29:26.233Z,11.84
2023-05-10T19:34:28.868Z,11.80
2023-05-10T19:39:32.582Z,11.87
2023-05-10T19:44:34.415Z,11.76
2023-05-10T19:49:36.494Z,11.71
2023-05-10T19:54:38.381Z,11.65
2023-05-10T19:59:40.228Z,11.57
2023-05-10T20:04:42.025Z,11.52
2023-05-10T20:09:44.423Z,11.51
2023-05-10T20:14:46.380Z,11.52
2023-05-10T20:19:48.195Z,11.48
2023-05-10T20:24:50.052Z,11.43
2023-05-10T20:29:51.868Z,11.42
2023-05-10T20:34:53.731Z,11.44
2023-05-10T20:39:56.497Z,11.47
2023-05-10T20:44:58.715Z,11.49
2023-05-10T20:50:00.627Z,11.48
2023-05-10T20:55:02.440Z,11.45
2023-05-10T21:00:05.686Z,11.45
2023-05-10T21:05:08.017Z,11.45
2023-05-10T21:10:11.643Z,11.45
2023-05-10T21:15:13.698Z,11.40
2023-05-10T21:20:15.693Z,11.39
2023-05-10T21:25:18.068Z,11.42
2023-05-10T21:30:20.279Z,11.44
2023-05-10T21:35:22.132Z,11.44
2023-05-10T21:40:24.225Z,11.46
2023-05-10T21:45:26.299Z,11.50
2023-05-10T21:50:28.633Z,11.49
2023-05-10T21:55:30.467Z,11.48
2023-05-10T22:00:34.213Z,11.43
2023-05-10T22:05:36.252Z,11.44
2023-05-10T22:10:38.110Z,11.40
2023-05-10T22:15:39.924Z,11.36
2023-05-10T22:20:44.909Z,11.37
2023-05-10T22:25:46.853Z,11.42
2023-05-10T22:30:48.714Z,11.38
2023-05-10T22:35:50.516Z,11.38
2023-05-10T22:40:52.373Z,11.35
2023-05-10T22:45:54.463Z,11.33
2023-05-10T22:50:56.338Z,11.36
2023-05-10T22:55:58.338Z,11.36
2023-05-10T23:01:00.365Z,11.36
2023-05-10T23:06:02.161Z,11.37
2023-05-10T23:11:03.998Z,11.35
2023-05-10T23:16:06.883Z,11.38
2023-05-10T23:21:08.794Z,11.42
2023-05-10T23:26:10.630Z,11.45
2023-05-10T23:31:12.448Z,11.43
2023-05-10T23:36:14.282Z,11.46
2023-05-10T23:41:16.101Z,11.46
2023-05-10T23:46:17.970Z,11.47
2023-05-10T23:51:19.816Z,11.46
2023-05-10T23:56:22.214Z,11.43
